createdAt,value
2018-07-26T00:02:03.272Z,99180.53
2018-07-26T00:04:32.300Z,99186.50
2018-07-26T00:07:01.365Z,99182.62
2018-07-26T00:09:30.336Z,99177.16
2018-07-26T00:11:59.335Z,99181.77
2018-07-26T00:14:28.304Z,99179.55
2018-07-26T00:16:57.344Z,99178.08
2018-07-26T00:19:26.300Z,99183.44
2018-07-26T00:21:55.254Z,99176.86
2018-07-26T00:24:24.236Z,99182.00
2018-07-26T00:26:53.224Z,99179.23
2018-07-26T00:29:22.228Z,99173.45
2018-07-26T00:31:51.193Z,99174.23
2018-07-26T00:34:20.140Z,99173.41
2018-07-26T00:36:49.112Z,99169.57
2018-07-26T00:39:18.084Z,99177.76
2018-07-26T00:41:47.076Z,99166.02
2018-07-26T00:44:16.017Z,99166.01
2018-07-26T00:46:45.008Z,99170.89
2018-07-26T00:49:13.952Z,99167.59
2018-07-26T00:51:42.920Z,99171.97
2018-07-26T00:54:11.922Z,99164.36
2018-07-26T00:56:40.951Z,99164.36
2018-07-26T00:59:09.944Z,99161.63
2018-07-26T01:01:38.959Z,99156.67
2018-07-26T01:04:08.024Z,99157.46
2018-07-26T01:06:37.025Z,99166.47
2018-07-26T01:09:08.993Z,99167.55
2018-07-26T01:11:38.263Z,99165.61
2018-07-26T01:14:07.228Z,99166.19
2018-07-26T01:16:36.205Z,99167.84
2018-07-26T01:19:05.430Z,99168.38
2018-07-26T01:21:34.448Z,99164.56
2018-07-26T01:24:03.636Z,99160.44
2018-07-26T01:26:32.712Z,99166.97
2018-07-26T01:29:01.793Z,99162.84
2018-07-26T01:31:30.839Z,99167.47
2018-07-26T01:33:59.866Z,99166.39
2018-07-26T01:36:28.824Z,99172.10
2018-07-26T01:38:57.927Z,99168.55
2018-07-26T01:41:26.945Z,99175.66
2018-07-26T01:44:06.687Z,99173.75
2018-07-26T01:46:35.615Z,99182.02
2018-07-26T01:49:04.683Z,99182.39
2018-07-26T01:51:33.648Z,99181.06
2018-07-26T01:54:02.721Z,99180.84
2018-07-26T01:56:31.746Z,99181.42
2018-07-26T01:59:00.692Z,99180.59
2018-07-26T02:01:29.660Z,99188.25
2018-07-26T02:03:58.672Z,99187.42
2018-07-26T02:06:27.702Z,99192.34
2018-07-26T02:08:56.692Z,99189.86
2018-07-26T02:11:25.794Z,99190.16
2018-07-26T02:13:54.824Z,99186.06
2018-07-26T02:16:23.846Z,99183.04
2018-07-26T02:18:52.932Z,99185.27
2018-07-26T02:21:21.880Z,99177.94
2018-07-26T02:23:50.869Z,99181.24
2018-07-26T02:26:19.829Z,99181.78
2018-07-26T02:28:48.847Z,99187.42
2018-07-26T02:31:17.800Z,99190.11
2018-07-26T02:33:46.827Z,99192.77
2018-07-26T02:36:15.788Z,99193.02
2018-07-26T02:38:44.796Z,99196.20
2018-07-26T02:41:13.829Z,99195.63
2018-07-26T02:43:42.860Z,99200.22
2018-07-26T02:46:11.901Z,99201.00
2018-07-26T02:48:40.844Z,99197.44
2018-07-26T02:51:09.902Z,99197.15
2018-07-26T02:53:38.910Z,99194.42
2018-07-26T02:56:07.916Z,99194.17
2018-07-26T02:58:36.892Z,99191.20
2018-07-26T03:01:05.908Z,99202.94
2018-07-26T03:03:35.047Z,99202.44
2018-07-26T03:06:04.013Z,99198.39
2018-07-26T03:08:33.045Z,99203.06
2018-07-26T03:11:02.098Z,99202.86
2018-07-26T03:13:31.072Z,99198.80
2018-07-26T03:16:00.154Z,99203.51
2018-07-26T03:18:29.108Z,99199.17
2018-07-26T03:20:58.369Z,99197.02
2018-07-26T03:23:27.325Z,99193.23
2018-07-26T03:25:56.296Z,99196.26
2018-07-26T03:28:25.282Z,99191.34
2018-07-26T03:30:54.290Z,99197.09
2018-07-26T03:33:23.334Z,99194.64
2018-07-26T03:35:52.345Z,99203.70
2018-07-26T03:38:21.432Z,99198.52
2018-07-26T03:40:50.408Z,99209.48
2018-07-26T03:43:19.429Z,99215.52
2018-07-26T03:45:48.408Z,99207.93
2018-07-26T03:48:17.388Z,99216.13
2018-07-26T03:50:46.454Z,99213.68
2018-07-26T03:53:15.487Z,99221.59
2018-07-26T03:55:44.573Z,99214.47
2018-07-26T03:58:13.544Z,99219.17
2018-07-26T04:00:42.585Z,99215.75
2018-07-26T04:03:11.647Z,99222.11
2018-07-26T04:05:40.648Z,99216.73
2018-07-26T04:08:24.141Z,99223.69
2018-07-26T04:10:53.177Z,99223.28
2018-07-26T04:13:22.333Z,99226.77
2018-07-26T04:15:51.422Z,99233.95
2018-07-26T04:18:20.462Z,99228.27
2018-07-26T04:20:49.572Z,99227.52
2018-07-26T04:23:18.560Z,99230.33
2018-07-26T04:25:47.572Z,99236.56
2018-07-26T04:28:16.626Z,99237.71
2018-07-26T04:30:45.666Z,99237.19
2018-07-26T04:33:15.603Z,99245.27
2018-07-26T04:35:44.680Z,99245.09
2018-07-26T04:38:13.705Z,99245.70
2018-07-26T04:40:42.696Z,99253.64
2018-07-26T04:43:11.913Z,99262.45
2018-07-26T04:45:41.046Z,99254.52
2018-07-26T04:48:10.262Z,99266.28
2018-07-26T04:50:39.840Z,99271.99
2018-07-26T04:53:08.879Z,99271.16
2018-07-26T04:55:37.922Z,99265.95
2018-07-26T04:58:07.222Z,99275.52
2018-07-26T05:00:36.208Z,99271.14
2018-07-26T05:03:05.304Z,99272.46
2018-07-26T05:05:34.362Z,99277.08
2018-07-26T05:08:03.436Z,99287.47
2018-07-26T05:10:32.561Z,99282.49
2018-07-26T05:13:01.678Z,99283.04
2018-07-26T05:15:30.721Z,99286.63
2018-07-26T05:17:59.817Z,99292.14
2018-07-26T05:20:28.824Z,99288.63
2018-07-26T05:22:57.848Z,99295.53
2018-07-26T05:25:26.991Z,99292.55
2018-07-26T05:27:56.069Z,99295.02
2018-07-26T05:30:25.129Z,99299.17
2018-07-26T05:32:54.185Z,99305.77
2018-07-26T05:35:23.177Z,99294.27
2018-07-26T05:37:52.216Z,99299.50
2018-07-26T05:40:21.383Z,99304.16
2018-07-26T05:42:50.368Z,99302.50
2018-07-26T05:45:19.398Z,99304.08
2018-07-26T05:47:48.479Z,99308.97
2018-07-26T05:50:17.552Z,99304.53
2018-07-26T05:52:46.548Z,99310.25
2018-07-26T05:55:15.685Z,99305.20
2018-07-26T05:57:44.744Z,99300.41
2018-07-26T06:00:14.800Z,99299.36
2018-07-26T06:02:44.514Z,99296.89
2018-07-26T06:05:13.523Z,99296.66
2018-07-26T06:07:42.601Z,99295.22
2018-07-26T06:10:11.644Z,99302.15
2018-07-26T06:12:40.713Z,99302.98
2018-07-26T06:15:11.921Z,99304.72
2018-07-26T06:17:41.498Z,99306.19
2018-07-26T06:20:12.009Z,99314.05
2018-07-26T06:22:41.461Z,99314.64
2018-07-26T06:25:10.771Z,99304.73
2018-07-26T06:27:39.908Z,99308.52
2018-07-26T06:30:11.881Z,99307.13
2018-07-26T06:32:41.192Z,99314.70
2018-07-26T06:35:10.900Z,99314.34
2018-07-26T06:37:40.276Z,99313.05
2018-07-26T06:40:09.364Z,99320.36
2018-07-26T06:42:38.352Z,99313.63
2018-07-26T06:45:08.520Z,99316.23
2018-07-26T06:47:37.502Z,99316.53
2018-07-26T06:50:08.638Z,99316.33
2018-07-26T06:52:37.716Z,99323.16
2018-07-26T06:55:06.980Z,99317.22
2018-07-26T06:57:36.015Z,99323.92
2018-07-26T07:00:06.751Z,99322.90
2018-07-26T07:02:35.745Z,99322.48
2018-07-26T07:05:04.747Z,99324.38
2018-07-26T07:07:33.757Z,99328.23
2018-07-26T07:10:02.855Z,99326.50
2018-07-26T07:12:31.924Z,99328.33
2018-07-26T07:15:00.884Z,99333.09
2018-07-26T07:17:29.859Z,99332.92
2018-07-26T07:19:58.821Z,99325.30
2018-07-26T07:22:27.912Z,99335.14
2018-07-26T07:24:56.937Z,99335.56
2018-07-26T07:27:26.026Z,99340.36
2018-07-26T07:29:55.106Z,99338.20
2018-07-26T07:32:24.112Z,99344.63
2018-07-26T07:34:53.128Z,99344.53
2018-07-26T07:37:22.104Z,99340.16
2018-07-26T07:39:51.080Z,99344.11
2018-07-26T07:42:20.038Z,99342.64
2018-07-26T07:44:49.107Z,99342.09
2018-07-26T07:47:18.145Z,99341.80
2018-07-26T07:49:47.084Z,99335.13
2018-07-26T07:52:16.172Z,99339.20
2018-07-26T07:54:45.197Z,99338.52
2018-07-26T07:57:14.348Z,99334.16
2018-07-26T07:59:43.327Z,99344.73
2018-07-26T08:02:12.422Z,99332.86
2018-07-26T08:04:41.381Z,99333.48
2018-07-26T08:07:10.406Z,99331.25
2018-07-26T08:09:39.442Z,99330.87
2018-07-26T08:12:08.480Z,99330.49
2018-07-26T08:14:37.638Z,99332.73
2018-07-26T08:17:06.704Z,99341.40
2018-07-26T08:19:35.717Z,99328.57
2018-07-26T08:22:04.741Z,99328.30
2018-07-26T08:24:33.753Z,99329.14
2018-07-26T08:27:02.730Z,99329.14
2018-07-26T08:29:31.758Z,99330.62
2018-07-26T08:32:00.736Z,99328.89
2018-07-26T08:34:29.760Z,99323.75
2018-07-26T08:36:58.816Z,99324.75
2018-07-26T08:39:27.792Z,99319.75
2018-07-26T08:41:56.799Z,99320.25
2018-07-26T08:44:25.844Z,99325.09
2018-07-26T08:46:54.828Z,99321.56
2018-07-26T08:49:23.827Z,99317.60
2018-07-26T08:51:52.920Z,99311.48
2018-07-26T08:54:22.060Z,99306.63
2018-07-26T08:56:51.080Z,99302.84
2018-07-26T08:59:20.045Z,99302.51
2018-07-26T09:01:49.180Z,99299.73
2018-07-26T09:04:18.152Z,99298.35
2018-07-26T09:06:47.185Z,99290.03
2018-07-26T09:09:16.277Z,99294.07
2018-07-26T09:11:45.340Z,99290.44
2018-07-26T09:14:14.475Z,99285.58
2018-07-26T09:16:43.428Z,99288.05
2018-07-26T09:19:12.400Z,99294.27
2018-07-26T09:21:41.465Z,99286.81
2018-07-26T09:24:10.462Z,99288.39
2018-07-26T09:26:39.416Z,99288.78
2018-07-26T09:29:08.455Z,99282.03
2018-07-26T09:31:37.412Z,99291.56
2018-07-26T09:34:06.450Z,99280.31
2018-07-26T09:36:35.478Z,99280.48
2018-07-26T09:39:06.763Z,99287.51
2018-07-26T09:41:35.825Z,99283.59
2018-07-26T09:44:04.778Z,99287.20
2018-07-26T09:46:33.865Z,99288.34
2018-07-26T09:49:02.868Z,99282.59
2018-07-26T09:51:31.830Z,99282.99
2018-07-26T09:54:00.801Z,99291.17
2018-07-26T09:56:29.861Z,99285.58
2018-07-26T09:58:58.912Z,99289.73
2018-07-26T10:01:33.680Z,99290.14
2018-07-26T10:04:02.773Z,99280.64
2018-07-26T10:06:31.781Z,99284.81
2018-07-26T10:09:00.801Z,99286.34
2018-07-26T10:11:29.914Z,99280.51
2018-07-26T10:13:58.950Z,99282.40
2018-07-26T10:16:28.038Z,99280.14
2018-07-26T10:18:57.010Z,99269.19
2018-07-26T10:21:26.064Z,99269.66
2018-07-26T10:23:55.013Z,99263.33
2018-07-26T10:26:24.385Z,99266.01
2018-07-26T10:28:53.480Z,99268.62
2018-07-26T10:31:22.567Z,99259.94
2018-07-26T10:33:51.544Z,99260.83
2018-07-26T10:36:20.632Z,99257.22
2018-07-26T10:38:49.722Z,99259.66
2018-07-26T10:41:18.925Z,99250.81
2018-07-26T10:43:47.872Z,99251.55
2018-07-26T10:46:16.906Z,99249.39
2018-07-26T10:48:45.881Z,99247.28
2018-07-26T10:51:14.931Z,99246.24
2018-07-26T10:53:43.948Z,99238.82
2018-07-26T10:56:12.992Z,99243.75
2018-07-26T10:58:42.396Z,99241.59
2018-07-26T11:01:11.350Z,99240.31
2018-07-26T11:03:40.361Z,99241.38
2018-07-26T11:06:09.353Z,99239.28
2018-07-26T11:08:38.384Z,99230.51
2018-07-26T11:11:07.757Z,99232.13
2018-07-26T11:13:36.836Z,99229.09
2018-07-26T11:16:05.808Z,99222.49
2018-07-26T11:18:34.805Z,99223.27
2018-07-26T11:21:03.909Z,99217.66
2018-07-26T11:23:33.005Z,99221.03
2018-07-26T11:26:02.122Z,99218.14
2018-07-26T11:28:31.158Z,99212.34
2018-07-26T11:31:00.247Z,99209.97
2018-07-26T11:33:29.228Z,99220.94
2018-07-26T11:35:58.328Z,99222.45
2018-07-26T11:38:27.373Z,99222.13
2018-07-26T11:40:56.420Z,99221.00
2018-07-26T11:43:25.449Z,99211.61
2018-07-26T11:45:54.465Z,99220.09
2018-07-26T11:48:23.500Z,99219.80
2018-07-26T11:50:52.563Z,99214.60
2018-07-26T11:53:21.569Z,99205.20
2018-07-26T11:55:50.669Z,99207.67
2018-07-26T11:58:19.648Z,99204.49
2018-07-26T12:00:48.611Z,99202.86
2018-07-26T12:03:17.628Z,99210.50
2018-07-26T12:05:46.736Z,99206.80
2018-07-26T12:08:15.720Z,99204.16
2018-07-26T12:10:44.712Z,99198.44
2018-07-26T12:13:13.712Z,99196.59
2018-07-26T12:15:42.714Z,99193.91
2018-07-26T12:18:11.933Z,99180.48
2018-07-26T12:20:41.024Z,99193.77
2018-07-26T12:23:10.101Z,99187.38
2018-07-26T12:25:39.036Z,99191.86
2018-07-26T12:28:08.330Z,99184.53
2018-07-26T12:30:37.312Z,99178.14
2018-07-26T12:33:06.356Z,99180.84
2018-07-26T12:35:35.390Z,99174.67
2018-07-26T12:38:04.401Z,99178.28
2018-07-26T12:40:33.513Z,99176.03
2018-07-26T12:43:02.881Z,99173.23
2018-07-26T12:45:31.832Z,99174.66
2018-07-26T12:48:00.929Z,99165.53
2018-07-26T12:50:29.968Z,99167.34
2018-07-26T12:52:58.944Z,99172.25
2018-07-26T12:55:28.220Z,99174.86
2018-07-26T12:57:57.304Z,99166.72
2018-07-26T13:00:26.258Z,99166.20
2018-07-26T13:02:55.265Z,99156.91
2018-07-26T13:05:24.232Z,99156.92
2018-07-26T13:07:53.208Z,99155.04
2018-07-26T13:10:22.172Z,99155.92
2018-07-26T13:12:51.136Z,99152.41
2018-07-26T13:15:20.198Z,99152.59
2018-07-26T13:17:49.550Z,99150.34
2018-07-26T13:20:18.569Z,99151.69
2018-07-26T13:22:47.608Z,99146.45
2018-07-26T13:25:16.640Z,99151.05
2018-07-26T13:27:45.613Z,99146.97
2018-07-26T13:30:14.579Z,99136.69
2018-07-26T13:32:43.560Z,99133.84
2018-07-26T13:35:12.836Z,99129.52
2018-07-26T13:37:41.876Z,99128.14
2018-07-26T13:40:10.901Z,99135.98
2018-07-26T13:42:39.860Z,99133.39
2018-07-26T13:45:09.580Z,99131.14
2018-07-26T13:47:38.697Z,99127.77
2018-07-26T13:50:07.913Z,99132.61
2018-07-26T13:52:36.989Z,99131.59
2018-07-26T13:55:06.107Z,99137.27
2018-07-26T13:57:35.087Z,99139.43
2018-07-26T14:00:04.156Z,99140.09
2018-07-26T14:02:33.186Z,99139.08
2018-07-26T14:05:02.266Z,99138.50
2018-07-26T14:07:31.377Z,99139.61
2018-07-26T14:10:00.361Z,99142.25
2018-07-26T14:12:29.437Z,99143.22
2018-07-26T14:14:58.409Z,99139.11
2018-07-26T14:17:27.456Z,99144.06
2018-07-26T14:19:56.468Z,99154.79
2018-07-26T14:22:25.434Z,99158.95
2018-07-26T14:24:58.468Z,99161.37
2018-07-26T14:27:27.628Z,99162.33
2018-07-26T14:29:56.857Z,99163.15
2018-07-26T14:32:25.815Z,99165.92
2018-07-26T14:34:54.924Z,99164.25
2018-07-26T14:37:23.977Z,99155.27
2018-07-26T14:39:52.920Z,99157.73
2018-07-26T14:42:21.913Z,99158.64
2018-07-26T14:44:50.995Z,99155.72
2018-07-26T14:47:19.968Z,99154.39
2018-07-26T14:49:48.913Z,99132.19
2018-07-26T14:52:17.993Z,99152.92
2018-07-26T14:54:47.001Z,99148.09
2018-07-26T14:57:16.073Z,99150.94
2018-07-26T14:59:45.052Z,99136.42
2018-07-26T15:02:14.173Z,99139.27
2018-07-26T15:04:43.146Z,99137.73
2018-07-26T15:07:12.115Z,99141.63
2018-07-26T15:09:41.161Z,99139.95
2018-07-26T15:12:10.376Z,99135.84
2018-07-26T15:14:39.337Z,99142.58
2018-07-26T15:17:08.316Z,99143.28
2018-07-26T15:19:37.415Z,99141.98
2018-07-26T15:22:06.461Z,99145.16
2018-07-26T15:24:36.241Z,99143.50
2018-07-26T15:27:06.097Z,99149.45
2018-07-26T15:29:35.085Z,99149.17
2018-07-26T15:32:04.057Z,99150.19
2018-07-26T15:34:33.040Z,99160.48
2018-07-26T15:37:03.507Z,99165.39
2018-07-26T15:39:32.525Z,99169.03
2018-07-26T15:42:01.593Z,99169.14
2018-07-26T15:44:30.765Z,99168.45
2018-07-26T15:46:59.782Z,99175.94
2018-07-26T15:49:28.856Z,99179.31
2018-07-26T15:51:57.945Z,99184.16
2018-07-26T15:54:27.028Z,99189.88
2018-07-26T15:56:56.020Z,99193.37
2018-07-26T15:59:24.991Z,99193.45
2018-07-26T16:01:54.008Z,99207.70
2018-07-26T16:04:23.127Z,99203.20
2018-07-26T16:06:52.292Z,99204.19
2018-07-26T16:09:21.277Z,99203.93
2018-07-26T16:11:50.341Z,99202.71
2018-07-26T16:14:19.352Z,99205.27
2018-07-26T16:16:48.360Z,99203.41
2018-07-26T16:19:17.485Z,99203.83
2018-07-26T16:21:46.512Z,99198.41
2018-07-26T16:24:15.673Z,99199.63
2018-07-26T16:26:44.693Z,99196.68
2018-07-26T16:29:13.725Z,99200.05
2018-07-26T16:31:42.708Z,99201.88
2018-07-26T16:34:11.845Z,99211.39
2018-07-26T16:36:40.876Z,99219.30
2018-07-26T16:39:11.737Z,99230.18
2018-07-26T16:41:40.860Z,99232.45
2018-07-26T16:44:09.840Z,99238.41
2018-07-26T16:46:38.835Z,99234.66
2018-07-26T16:49:08.446Z,99237.52
2018-07-26T16:51:37.451Z,99243.69
2018-07-26T16:54:06.529Z,99239.97
2018-07-26T16:56:35.556Z,99251.25
2018-07-26T16:59:04.715Z,99256.50
2018-07-26T17:01:33.747Z,99258.87
2018-07-26T17:04:02.755Z,99262.80
2018-07-26T17:06:31.835Z,99261.00
2018-07-26T17:09:00.791Z,99268.73
2018-07-26T17:11:29.843Z,99276.00
2018-07-26T17:13:58.870Z,99280.25
2018-07-26T17:16:27.873Z,99272.95
2018-07-26T17:18:56.979Z,99277.98
2018-07-26T17:21:25.979Z,99278.00
2018-07-26T17:23:58.458Z,99277.20
2018-07-26T17:26:27.665Z,99283.05
2018-07-26T17:28:56.716Z,99280.30
2018-07-26T17:31:25.693Z,99294.33
2018-07-26T17:33:54.885Z,99295.71
2018-07-26T17:36:23.892Z,99295.64
2018-07-26T17:38:52.857Z,99294.17
2018-07-26T17:41:21.803Z,99291.38
2018-07-26T17:43:50.937Z,99291.95
2018-07-26T17:46:19.905Z,99293.61
2018-07-26T17:48:48.989Z,99296.42
2018-07-26T17:51:17.999Z,99298.17
2018-07-26T17:53:46.996Z,99298.23
2018-07-26T17:56:16.078Z,99295.63
2018-07-26T17:58:45.085Z,99297.63
2018-07-26T18:01:14.720Z,99301.85
2018-07-26T18:03:43.875Z,99300.00
2018-07-26T18:06:12.925Z,99301.73
2018-07-26T18:08:41.884Z,99303.97
2018-07-26T18:11:10.864Z,99307.31
2018-07-26T18:13:39.879Z,99316.42
2018-07-26T18:16:08.877Z,99323.85
2018-07-26T18:18:42.775Z,99325.20
2018-07-26T18:21:11.793Z,99327.63
2018-07-26T18:23:40.854Z,99338.62
2018-07-26T18:26:09.925Z,99337.52
2018-07-26T18:28:38.923Z,99336.64
2018-07-26T18:31:08.010Z,99332.01
2018-07-26T18:33:36.977Z,99339.80
2018-07-26T18:36:06.148Z,99347.56
2018-07-26T18:38:35.142Z,99349.79
2018-07-26T18:41:04.120Z,99342.72
2018-07-26T18:43:33.331Z,99377.92
2018-07-26T18:46:02.347Z,99386.73
2018-07-26T18:48:31.522Z,99403.55
2018-07-26T18:51:00.650Z,99409.88
2018-07-26T18:53:29.724Z,99409.92
2018-07-26T18:55:58.658Z,99405.01
2018-07-26T18:58:27.706Z,99401.78
2018-07-26T19:00:56.702Z,99410.88
2018-07-26T19:03:25.793Z,99415.28
2018-07-26T19:05:54.775Z,99409.50
2018-07-26T19:08:23.789Z,99412.00
2018-07-26T19:10:52.866Z,99399.63
2018-07-26T19:13:21.912Z,99405.14
2018-07-26T19:15:50.932Z,99401.05
2018-07-26T19:18:20.028Z,99405.98
2018-07-26T19:20:49.105Z,99399.10
2018-07-26T19:23:18.150Z,99405.17
2018-07-26T19:25:47.213Z,99404.07
2018-07-26T19:28:16.332Z,99407.09
2018-07-26T19:30:45.291Z,99402.14
2018-07-26T19:33:14.308Z,99408.75
2018-07-26T19:35:43.290Z,99404.08
2018-07-26T19:38:12.260Z,99402.43
2018-07-26T19:40:41.248Z,99395.28
2018-07-26T19:43:10.265Z,99402.17
2018-07-26T19:45:39.357Z,99398.31
2018-07-26T19:48:08.394Z,99398.85
2018-07-26T19:50:37.504Z,99389.81
2018-07-26T19:53:06.636Z,99385.69
2018-07-26T19:55:35.674Z,99381.56
2018-07-26T19:58:04.651Z,99387.59
2018-07-26T20:00:33.604Z,99399.94
2018-07-26T20:03:02.633Z,99398.55
2018-07-26T20:05:31.605Z,99398.00
2018-07-26T20:08:00.705Z,99398.83
2018-07-26T20:10:29.740Z,99401.01
2018-07-26T20:12:58.736Z,99405.13
2018-07-26T20:15:27.874Z,99405.66
2018-07-26T20:17:56.917Z,99403.20
2018-07-26T20:20:25.884Z,99399.08
2018-07-26T20:22:55.029Z,99400.44
2018-07-26T20:25:24.061Z,99396.59
2018-07-26T20:27:53.113Z,99395.22
2018-07-26T20:30:22.132Z,99388.91
2018-07-26T20:32:51.231Z,99398.49
2018-07-26T20:35:20.244Z,99400.95
2018-07-26T20:37:49.327Z,99406.41
2018-07-26T20:40:18.484Z,99405.88
2018-07-26T20:42:47.432Z,99407.25
2018-07-26T20:45:16.408Z,99397.38
2018-07-26T20:47:45.360Z,99396.28
2018-07-26T20:50:14.391Z,99395.74
2018-07-26T20:52:43.351Z,99403.12
2018-07-26T20:55:12.428Z,99404.25
2018-07-26T20:57:41.469Z,99400.68
2018-07-26T21:00:12.169Z,99404.49
2018-07-26T21:02:41.520Z,99411.37
2018-07-26T21:05:10.669Z,99410.00
2018-07-26T21:07:39.732Z,99410.00
2018-07-26T21:10:09.555Z,99403.42
2018-07-26T21:12:38.536Z,99411.09
2018-07-26T21:15:08.891Z,99410.80
2018-07-26T21:17:37.868Z,99416.01
2018-07-26T21:20:06.966Z,99412.70
2018-07-26T21:22:36.101Z,99414.89
2018-07-26T21:25:05.169Z,99411.33
2018-07-26T21:27:34.239Z,99405.83
2018-07-26T21:30:03.213Z,99409.40
2018-07-26T21:32:32.312Z,99410.77
2018-07-26T21:35:01.285Z,99405.57
2018-07-26T21:37:30.320Z,99401.17
2018-07-26T21:39:59.332Z,99397.63
2018-07-26T21:42:28.421Z,99395.39
2018-07-26T21:44:57.461Z,99396.47
2018-07-26T21:47:26.430Z,99394.53
2018-07-26T21:49:55.525Z,99388.77
2018-07-26T21:52:24.533Z,99393.69
2018-07-26T21:54:53.511Z,99393.69
2018-07-26T21:57:22.680Z,99389.58
2018-07-26T21:59:51.648Z,99390.10
2018-07-26T22:02:20.687Z,99381.31
2018-07-26T22:04:49.796Z,99387.36
2018-07-26T22:07:18.817Z,99384.05
2018-07-26T22:09:47.872Z,99382.40
2018-07-26T22:12:16.862Z,99381.02
2018-07-26T22:14:45.824Z,99379.88
2018-07-26T22:17:14.862Z,99380.70
2018-07-26T22:19:43.836Z,99380.11
2018-07-26T22:22:12.874Z,99383.66
2018-07-26T22:24:41.915Z,99390.52
2018-07-26T22:27:10.955Z,99388.58
2018-07-26T22:29:39.920Z,99390.20
2018-07-26T22:32:08.952Z,99390.47
2018-07-26T22:34:37.932Z,99393.19
2018-07-26T22:37:07.041Z,99401.97
2018-07-26T22:39:36.141Z,99403.84
2018-07-26T22:42:05.120Z,99408.47
2018-07-26T22:44:34.128Z,99409.74
2018-07-26T22:47:03.160Z,99414.08
2018-07-26T22:49:32.193Z,99412.41
2018-07-26T22:52:01.161Z,99415.38
2018-07-26T22:54:30.238Z,99412.33
2018-07-26T22:56:59.381Z,99415.87
2018-07-26T22:59:28.412Z,99419.12
2018-07-26T23:01:57.432Z,99417.18
2018-07-26T23:04:26.612Z,99421.26
2018-07-26T23:06:55.582Z,99416.87
2018-07-26T23:09:24.559Z,99430.01
2018-07-26T23:11:53.568Z,99434.63
2018-07-26T23:14:22.664Z,99432.69
2018-07-26T23:16:51.729Z,99434.02
2018-07-26T23:19:20.718Z,99434.53
2018-07-26T23:21:49.808Z,99437.20
2018-07-26T23:24:18.845Z,99436.98
2018-07-26T23:26:47.811Z,99438.31
2018-07-26T23:29:16.780Z,99432.02
2018-07-26T23:31:45.776Z,99429.83
2018-07-26T23:34:14.756Z,99431.48
2018-07-26T23:36:43.837Z,99435.58
2018-07-26T23:39:13.659Z,99438.57
2018-07-26T23:41:42.680Z,99439.94
2018-07-26T23:44:11.660Z,99439.69
2018-07-26T23:46:40.607Z,99437.48
2018-07-26T23:49:09.581Z,99438.31
2018-07-26T23:51:38.600Z,99435.84
2018-07-26T23:54:07.623Z,99430.88
2018-07-26T23:56:36.589Z,99438.53
2018-07-26T23:59:05.677Z,99437.97
